createdAt,value
2023-01-12T00:00:29.657Z,96.00
2023-01-12T00:01:32.032Z,96.13
2023-01-12T00:02:34.013Z,96.12
2023-01-12T00:03:35.823Z,95.50
2023-01-12T00:04:37.862Z,96.18
2023-01-12T00:05:39.679Z,95.90
2023-01-12T00:06:42.083Z,96.14
2023-01-12T00:07:43.918Z,95.72
2023-01-12T00:08:46.344Z,95.49
2023-01-12T00:09:48.318Z,95.66
2023-01-12T00:10:50.086Z,95.86
2023-01-12T00:11:51.872Z,95.64
2023-01-12T00:12:53.706Z,95.84
2023-01-12T00:13:55.531Z,95.65
2023-01-12T00:14:57.352Z,95.97
2023-01-12T00:16:21.680Z,95.51
2023-01-12T00:17:23.489Z,95.25
2023-01-12T00:18:25.258Z,95.55
2023-01-12T00:19:27.060Z,95.29
2023-01-12T00:20:28.972Z,95.77
2023-01-12T00:21:35.955Z,95.50
2023-01-12T00:22:37.808Z,95.05
2023-01-12T00:23:39.805Z,95.22
2023-01-12T00:24:44.180Z,94.78
2023-01-12T00:25:50.615Z,94.64
2023-01-12T00:26:53.044Z,94.76
2023-01-12T00:27:54.975Z,94.32
2023-01-12T00:28:56.775Z,94.37
2023-01-12T00:29:58.622Z,94.50
2023-01-12T00:31:01.316Z,95.15
2023-01-12T00:32:04.679Z,94.61
2023-01-12T00:33:06.509Z,94.64
2023-01-12T00:34:08.452Z,94.49
2023-01-12T00:35:10.284Z,95.05
2023-01-12T00:36:14.113Z,94.46
2023-01-12T00:37:16.148Z,95.01
2023-01-12T00:38:18.722Z,94.69
2023-01-12T00:39:21.724Z,94.68
2023-01-12T00:40:23.590Z,94.85
2023-01-12T00:41:43.892Z,94.86
2023-01-12T00:43:04.285Z,94.30
2023-01-12T00:44:24.733Z,94.70
2023-01-12T00:45:26.651Z,94.78
2023-01-12T00:46:33.733Z,94.06
2023-01-12T00:47:35.684Z,93.99
2023-01-12T00:48:37.516Z,94.37
2023-01-12T00:49:41.348Z,93.82
2023-01-12T00:50:43.223Z,94.51
2023-01-12T00:51:45.059Z,94.06
2023-01-12T00:52:46.842Z,94.22
2023-01-12T00:53:48.661Z,94.22
2023-01-12T00:54:50.467Z,93.72
2023-01-12T00:55:52.397Z,93.60
2023-01-12T00:56:54.208Z,94.34
2023-01-12T00:57:56.973Z,93.93
2023-01-12T00:58:58.837Z,94.85
2023-01-12T01:00:00.666Z,94.86
2023-01-12T01:01:09.088Z,95.20
2023-01-12T01:02:11.909Z,94.82
2023-01-12T01:03:13.713Z,95.41
2023-01-12T01:04:15.587Z,94.92
2023-01-12T01:05:18.192Z,95.44
2023-01-12T01:06:20.008Z,95.41
2023-01-12T01:07:24.637Z,95.23
2023-01-12T01:08:26.442Z,95.76
2023-01-12T01:09:28.358Z,95.77
2023-01-12T01:10:30.175Z,95.33
2023-01-12T01:11:32.474Z,95.33
2023-01-12T01:12:34.355Z,95.73
2023-01-12T01:13:41.064Z,96.03
2023-01-12T01:14:42.992Z,95.50
2023-01-12T01:15:44.803Z,96.11
2023-01-12T01:16:46.693Z,96.11
2023-01-12T01:17:48.567Z,95.54
2023-01-12T01:18:50.455Z,95.66
2023-01-12T01:19:52.286Z,95.46
2023-01-12T01:20:54.252Z,95.91
2023-01-12T01:21:56.009Z,95.47
2023-01-12T01:22:57.821Z,95.88
2023-01-12T01:23:59.987Z,95.70
2023-01-12T01:25:02.096Z,95.69
2023-01-12T01:26:08.363Z,95.31
2023-01-12T01:27:10.145Z,95.79
2023-01-12T01:28:11.936Z,96.11
2023-01-12T01:29:14.015Z,95.70
2023-01-12T01:30:16.049Z,96.15
2023-01-12T01:31:20.677Z,96.15
2023-01-12T01:32:22.508Z,96.16
2023-01-12T01:33:24.272Z,96.03
2023-01-12T01:34:26.173Z,96.23
2023-01-12T01:35:28.015Z,96.41
2023-01-12T01:36:29.811Z,96.08
2023-01-12T01:37:31.715Z,96.55
2023-01-12T01:38:34.101Z,96.25
2023-01-12T01:39:36.133Z,96.30
2023-01-12T01:40:42.266Z,96.14
2023-01-12T01:41:44.136Z,97.01
2023-01-12T01:42:46.027Z,96.89
2023-01-12T01:44:01.503Z,96.73
2023-01-12T01:45:04.801Z,96.64
2023-01-12T01:46:09.516Z,96.52
2023-01-12T01:47:17.546Z,96.84
2023-01-12T01:48:19.546Z,96.40
2023-01-12T01:49:27.562Z,96.22
2023-01-12T01:50:35.673Z,96.70
2023-01-12T01:51:37.538Z,95.95
2023-01-12T01:52:42.013Z,96.07
2023-01-12T01:53:45.694Z,96.47
2023-01-12T01:54:52.556Z,96.23
2023-01-12T01:55:59.378Z,95.83
2023-01-12T01:57:01.358Z,96.17
2023-01-12T01:58:14.975Z,96.09
2023-01-12T01:59:21.113Z,95.73
2023-01-12T02:00:24.259Z,96.03
2023-01-12T02:01:26.790Z,95.69
2023-01-12T02:02:28.983Z,95.66
2023-01-12T02:03:34.051Z,96.35
2023-01-12T02:04:38.432Z,96.15
2023-01-12T02:05:42.079Z,96.45
2023-01-12T02:06:44.317Z,96.22
2023-01-12T02:07:46.655Z,96.96
2023-01-12T02:08:48.360Z,97.30
2023-01-12T02:09:50.151Z,96.82
2023-01-12T02:10:52.590Z,97.39
2023-01-12T02:12:13.663Z,97.24
2023-01-12T02:13:34.268Z,97.13
2023-01-12T02:14:54.342Z,97.62
2023-01-12T02:16:21.378Z,97.00
2023-01-12T02:17:26.163Z,96.82
2023-01-12T02:18:33.502Z,96.62
2023-01-12T02:19:35.248Z,97.31
2023-01-12T02:20:48.747Z,97.06
2023-01-12T02:21:53.223Z,96.62
2023-01-12T02:23:13.353Z,96.98
2023-01-12T02:24:21.334Z,96.84
2023-01-12T02:25:29.277Z,96.76
2023-01-12T02:26:49.736Z,96.70
2023-01-12T02:28:14.156Z,96.46
2023-01-12T02:29:21.676Z,96.47
2023-01-12T02:30:23.428Z,96.27
2023-01-12T02:31:43.633Z,95.80
2023-01-12T02:32:45.410Z,96.19
2023-01-12T02:33:58.966Z,95.78
2023-01-12T02:35:09.589Z,96.24
2023-01-12T02:36:31.572Z,95.61
2023-01-12T02:37:42.402Z,96.41
2023-01-12T02:38:44.122Z,95.91
2023-01-12T02:40:02.137Z,96.72
2023-01-12T02:41:10.009Z,96.41
2023-01-12T02:42:30.219Z,96.83
2023-01-12T02:43:33.866Z,96.41
2023-01-12T02:44:54.024Z,97.03
2023-01-12T02:45:55.892Z,97.16
2023-01-12T02:46:58.914Z,97.14
2023-01-12T02:48:15.481Z,97.65
2023-01-12T02:49:19.241Z,98.03
2023-01-12T02:50:32.477Z,98.70
2023-01-12T02:51:52.535Z,98.81
2023-01-12T02:52:58.049Z,99.18
2023-01-12T02:54:02.041Z,99.17
2023-01-12T02:55:05.029Z,98.99
2023-01-12T02:56:08.164Z,98.81
2023-01-12T02:57:11.286Z,99.33
2023-01-12T02:58:15.042Z,99.27
2023-01-12T02:59:36.994Z,99.33
2023-01-12T03:00:40.502Z,98.77
2023-01-12T03:01:43.920Z,98.56
2023-01-12T03:02:45.918Z,98.35
2023-01-12T03:03:49.097Z,98.87
2023-01-12T03:04:51.228Z,98.67
2023-01-12T03:05:55.649Z,98.46
2023-01-12T03:06:57.401Z,98.40
2023-01-12T03:08:00.649Z,98.44
2023-01-12T03:09:02.463Z,98.32
2023-01-12T03:10:13.607Z,98.25
2023-01-12T03:11:16.782Z,98.42
2023-01-12T03:12:21.344Z,98.10
2023-01-12T03:13:24.150Z,98.73
2023-01-12T03:14:27.551Z,98.92
2023-01-12T03:15:29.936Z,98.82
2023-01-12T03:16:34.835Z,98.76
2023-01-12T03:17:40.849Z,99.19
2023-01-12T03:18:51.264Z,99.06
2023-01-12T03:19:54.711Z,99.33
2023-01-12T03:21:00.327Z,99.04
2023-01-12T03:22:08.071Z,99.38
2023-01-12T03:23:13.025Z,98.87
2023-01-12T03:24:16.061Z,99.00
2023-01-12T03:25:18.714Z,98.70
2023-01-12T03:26:23.505Z,99.22
2023-01-12T03:27:28.547Z,99.11
2023-01-12T03:28:34.918Z,99.04
2023-01-12T03:29:41.347Z,99.13
2023-01-12T03:30:50.363Z,99.20
2023-01-12T03:31:52.739Z,99.37
2023-01-12T03:32:54.554Z,99.51
2023-01-12T03:33:56.369Z,99.77
2023-01-12T03:34:59.048Z,98.58
2023-01-12T03:36:07.031Z,99.00
2023-01-12T03:37:08.897Z,98.77
2023-01-12T03:38:24.929Z,98.45
2023-01-12T03:39:26.758Z,98.68
2023-01-12T03:40:32.805Z,98.42
2023-01-12T03:41:56.688Z,98.29
2023-01-12T03:42:58.611Z,98.50
2023-01-12T03:44:04.096Z,98.27
2023-01-12T03:45:30.615Z,98.29
2023-01-12T03:46:36.882Z,98.13
2023-01-12T03:47:40.981Z,98.26
2023-01-12T03:48:58.500Z,98.66
2023-01-12T03:50:06.572Z,98.02
2023-01-12T03:51:40.628Z,98.11
2023-01-12T03:52:43.509Z,98.29
2023-01-12T03:53:49.534Z,98.60
2023-01-12T03:54:52.359Z,98.67
2023-01-12T03:55:56.643Z,98.99
2023-01-12T03:56:58.646Z,98.45
2023-01-12T03:58:01.093Z,98.52
2023-01-12T03:59:03.703Z,98.45
2023-01-12T04:00:10.787Z,98.56
2023-01-12T04:01:13.066Z,98.38
2023-01-12T04:02:14.948Z,98.83
2023-01-12T04:03:17.146Z,98.82
2023-01-12T04:04:20.400Z,98.59
2023-01-12T04:05:22.367Z,97.92
2023-01-12T04:06:24.233Z,98.24
2023-01-12T04:07:26.158Z,98.35
2023-01-12T04:08:28.402Z,98.33
2023-01-12T04:09:30.279Z,97.76
2023-01-12T04:10:32.285Z,98.25
2023-01-12T04:11:52.752Z,98.41
2023-01-12T04:12:54.592Z,98.83
2023-01-12T04:13:56.931Z,99.21
2023-01-12T04:14:59.341Z,99.35
2023-01-12T04:16:01.167Z,98.98
2023-01-12T04:17:02.970Z,99.30
2023-01-12T04:18:05.157Z,99.27
2023-01-12T04:19:07.002Z,99.62
2023-01-12T04:20:09.857Z,99.65
2023-01-12T04:21:31.698Z,99.71
2023-01-12T04:22:45.570Z,99.21
2023-01-12T04:23:47.386Z,99.00
2023-01-12T04:24:49.387Z,98.73
2023-01-12T04:25:51.209Z,99.41
2023-01-12T04:26:53.010Z,99.21
2023-01-12T04:28:02.663Z,98.70
2023-01-12T04:29:04.573Z,98.51
2023-01-12T04:30:06.991Z,98.81
2023-01-12T04:31:09.826Z,98.72
2023-01-12T04:32:12.122Z,98.48
2023-01-12T04:33:14.043Z,98.36
2023-01-12T04:34:15.828Z,98.45
2023-01-12T04:35:17.922Z,98.60
2023-01-12T04:36:19.798Z,98.29
2023-01-12T04:37:21.867Z,98.27
2023-01-12T04:38:23.824Z,98.06
2023-01-12T04:39:25.574Z,98.17
2023-01-12T04:40:27.407Z,98.46
2023-01-12T04:41:29.208Z,98.59
2023-01-12T04:42:49.614Z,97.81
2023-01-12T04:43:51.456Z,98.38
2023-01-12T04:44:53.304Z,97.93
2023-01-12T04:45:55.291Z,97.84
2023-01-12T04:46:57.110Z,97.94
2023-01-12T04:48:05.961Z,98.01
2023-01-12T04:49:07.957Z,98.01
2023-01-12T04:50:10.049Z,98.31
2023-01-12T04:51:12.360Z,98.60
2023-01-12T04:52:14.190Z,98.21
2023-01-12T04:53:16.453Z,98.41
2023-01-12T04:54:18.360Z,98.37
2023-01-12T04:55:20.263Z,98.35
2023-01-12T04:56:22.120Z,97.88
2023-01-12T04:57:24.497Z,98.07
2023-01-12T04:58:26.307Z,98.46
2023-01-12T04:59:29.519Z,98.00
2023-01-12T05:00:31.349Z,98.41
2023-01-12T05:01:33.473Z,97.93
2023-01-12T05:02:35.372Z,98.42
2023-01-12T05:03:37.375Z,98.45
2023-01-12T05:04:39.269Z,98.78
2023-01-12T05:05:41.559Z,98.72
2023-01-12T05:06:43.439Z,98.95
2023-01-12T05:08:03.713Z,98.61
2023-01-12T05:09:24.002Z,98.79
2023-01-12T05:10:25.841Z,99.13
2023-01-12T05:11:28.774Z,98.99
2023-01-12T05:12:30.729Z,98.55
2023-01-12T05:13:32.523Z,98.70
2023-01-12T05:14:34.370Z,98.87
2023-01-12T05:15:36.161Z,98.32
2023-01-12T05:16:38.143Z,98.80
2023-01-12T05:17:40.049Z,98.17
2023-01-12T05:18:42.586Z,98.22
2023-01-12T05:19:44.377Z,98.16
2023-01-12T05:20:46.260Z,98.59
2023-01-12T05:21:48.153Z,98.37
2023-01-12T05:22:51.924Z,97.83
2023-01-12T05:23:53.834Z,97.83
2023-01-12T05:24:55.846Z,98.17
2023-01-12T05:26:01.254Z,98.22
2023-01-12T05:27:03.117Z,98.50
2023-01-12T05:28:05.219Z,98.29
2023-01-12T05:29:07.054Z,98.64
2023-01-12T05:30:09.230Z,98.56
2023-01-12T05:31:12.020Z,98.70
2023-01-12T05:32:13.948Z,98.55
2023-01-12T05:33:16.763Z,98.65
2023-01-12T05:34:20.069Z,98.48
2023-01-12T05:35:21.997Z,98.28
2023-01-12T05:36:26.367Z,98.56
2023-01-12T05:37:29.272Z,98.78
2023-01-12T05:38:31.306Z,98.58
2023-01-12T05:39:33.287Z,98.83
2023-01-12T05:40:35.076Z,98.48
2023-01-12T05:41:36.898Z,99.04
2023-01-12T05:42:57.395Z,99.15
2023-01-12T05:43:59.232Z,99.08
2023-01-12T05:45:01.050Z,99.41
2023-01-12T05:46:05.947Z,99.31
2023-01-12T05:47:07.724Z,98.80
2023-01-12T05:48:09.971Z,98.97
2023-01-12T05:49:11.895Z,99.13
2023-01-12T05:50:13.694Z,98.89
2023-01-12T05:51:16.074Z,98.84
2023-01-12T05:52:17.868Z,98.52
2023-01-12T05:53:19.775Z,98.32
2023-01-12T05:54:21.779Z,98.91
2023-01-12T05:55:23.704Z,98.42
2023-01-12T05:56:26.779Z,98.42
2023-01-12T05:57:32.030Z,99.11
2023-01-12T05:58:34.258Z,98.73
2023-01-12T05:59:36.396Z,98.52
2023-01-12T06:00:38.194Z,98.61
2023-01-12T06:01:41.063Z,98.31
2023-01-12T06:02:42.959Z,98.68
2023-01-12T06:03:48.315Z,98.43
2023-01-12T06:04:50.320Z,98.62
2023-01-12T06:05:52.982Z,98.06
2023-01-12T06:06:54.845Z,98.08
2023-01-12T06:07:56.635Z,98.19
2023-01-12T06:08:59.317Z,98.31
2023-01-12T06:10:01.211Z,98.57
2023-01-12T06:11:03.463Z,98.45
2023-01-12T06:12:24.400Z,98.34
2023-01-12T06:13:44.634Z,98.07
2023-01-12T06:14:46.478Z,98.01
2023-01-12T06:15:48.240Z,98.22
2023-01-12T06:16:50.093Z,97.85
2023-01-12T06:17:51.907Z,97.82
2023-01-12T06:18:53.692Z,98.06
2023-01-12T06:19:55.476Z,97.75
2023-01-12T06:20:59.835Z,97.93
2023-01-12T06:22:01.622Z,97.86
2023-01-12T06:23:05.320Z,98.10
2023-01-12T06:24:07.284Z,98.25
2023-01-12T06:25:09.382Z,98.29
2023-01-12T06:26:12.372Z,98.31
2023-01-12T06:27:14.188Z,98.70
2023-01-12T06:28:16.944Z,98.25
2023-01-12T06:29:18.881Z,98.40
2023-01-12T06:30:20.822Z,97.97
2023-01-12T06:31:22.701Z,98.21
2023-01-12T06:32:24.540Z,98.57
2023-01-12T06:33:26.955Z,98.58
2023-01-12T06:34:34.939Z,98.44
2023-01-12T06:35:36.846Z,98.41
2023-01-12T06:36:39.212Z,98.39
2023-01-12T06:37:41.165Z,98.46
2023-01-12T06:38:43.574Z,98.94
2023-01-12T06:39:45.328Z,98.89
2023-01-12T06:40:47.285Z,98.73
2023-01-12T06:42:07.775Z,98.03
2023-01-12T06:43:09.666Z,98.72
2023-01-12T06:44:11.498Z,98.09
2023-01-12T06:45:13.213Z,98.22
2023-01-12T06:46:15.115Z,98.08
2023-01-12T06:47:17.085Z,97.72
2023-01-12T06:48:21.515Z,97.64
2023-01-12T06:49:23.416Z,97.91
2023-01-12T06:50:25.411Z,96.99
2023-01-12T06:51:27.379Z,97.60
2023-01-12T06:52:30.380Z,98.01
2023-01-12T06:53:32.314Z,97.67
2023-01-12T06:54:34.104Z,97.95
2023-01-12T06:55:35.947Z,97.97
2023-01-12T06:56:37.810Z,98.42
2023-01-12T06:57:39.585Z,98.68
2023-01-12T06:58:45.065Z,98.95
2023-01-12T06:59:46.880Z,98.91
2023-01-12T07:00:48.828Z,98.97
2023-01-12T07:01:51.006Z,99.19
2023-01-12T07:02:53.070Z,99.16
2023-01-12T07:03:54.957Z,99.48
2023-01-12T07:04:56.790Z,99.70
2023-01-12T07:05:59.691Z,99.32
2023-01-12T07:07:01.546Z,99.68
2023-01-12T07:08:03.428Z,99.52
2023-01-12T07:09:06.795Z,99.72
2023-01-12T07:10:09.521Z,99.78
2023-01-12T07:11:15.355Z,99.48
2023-01-12T07:12:17.235Z,99.54
2023-01-12T07:13:19.150Z,99.49
2023-01-12T07:14:21.150Z,99.81
2023-01-12T07:15:23.640Z,99.35
2023-01-12T07:16:25.496Z,99.38
2023-01-12T07:17:27.371Z,98.99
2023-01-12T07:18:29.687Z,98.81
2023-01-12T07:19:31.719Z,99.37
2023-01-12T07:20:33.659Z,99.26
2023-01-12T07:21:35.567Z,99.08
2023-01-12T07:22:37.586Z,99.25
2023-01-12T07:23:42.351Z,99.38
2023-01-12T07:24:44.433Z,99.28
2023-01-12T07:25:46.263Z,99.15
2023-01-12T07:26:50.031Z,99.27
2023-01-12T07:27:55.756Z,99.14
2023-01-12T07:28:57.574Z,99.19
2023-01-12T07:30:01.796Z,99.26
2023-01-12T07:31:04.620Z,99.10
2023-01-12T07:32:06.819Z,99.16
2023-01-12T07:33:09.405Z,99.23
2023-01-12T07:34:12.021Z,99.56
2023-01-12T07:35:14.026Z,98.90
2023-01-12T07:36:16.675Z,98.68
2023-01-12T07:37:18.473Z,99.03
2023-01-12T07:38:20.273Z,98.73
2023-01-12T07:39:22.108Z,98.66
2023-01-12T07:40:24.005Z,98.50
2023-01-12T07:41:46.026Z,98.46
2023-01-12T07:42:47.889Z,98.53
2023-01-12T07:43:49.732Z,98.62
2023-01-12T07:44:51.704Z,98.96
2023-01-12T07:45:56.061Z,98.47
2023-01-12T07:46:59.743Z,98.39
2023-01-12T07:48:01.716Z,98.26
2023-01-12T07:49:03.613Z,98.46
2023-01-12T07:50:05.640Z,98.48
2023-01-12T07:51:07.617Z,98.59
2023-01-12T07:52:11.553Z,97.98
2023-01-12T07:53:13.334Z,97.95
2023-01-12T07:54:15.271Z,98.31
2023-01-12T07:55:19.298Z,98.31
2023-01-12T07:56:21.242Z,98.43
2023-01-12T07:57:23.021Z,98.47
2023-01-12T07:58:24.775Z,98.05
2023-01-12T07:59:27.772Z,98.40
2023-01-12T08:00:30.428Z,98.38
2023-01-12T08:01:33.368Z,98.22
2023-01-12T08:02:35.412Z,97.78
2023-01-12T08:03:38.717Z,97.78
2023-01-12T08:04:40.597Z,97.81
2023-01-12T08:05:42.456Z,98.03
2023-01-12T08:06:44.290Z,97.58
2023-01-12T08:07:46.272Z,97.44
2023-01-12T08:08:48.068Z,97.59
2023-01-12T08:09:49.972Z,98.00
2023-01-12T08:10:51.869Z,97.90
2023-01-12T08:11:53.750Z,98.01
2023-01-12T08:12:55.550Z,97.58
2023-01-12T08:13:58.665Z,97.99
2023-01-12T08:15:00.850Z,97.95
2023-01-12T08:16:07.207Z,97.38
2023-01-12T08:17:15.214Z,97.16
2023-01-12T08:18:20.286Z,97.50
2023-01-12T08:19:24.855Z,97.02
2023-01-12T08:20:32.438Z,97.42
2023-01-12T08:21:45.408Z,97.49
2023-01-12T08:22:49.647Z,96.88
2023-01-12T08:23:54.803Z,96.95
2023-01-12T08:25:00.242Z,97.27
2023-01-12T08:26:05.122Z,96.99
2023-01-12T08:27:07.652Z,97.04
2023-01-12T08:28:09.590Z,97.16
2023-01-12T08:29:16.602Z,97.58
2023-01-12T08:30:20.064Z,97.00
2023-01-12T08:31:25.215Z,97.30
2023-01-12T08:32:28.537Z,97.94
2023-01-12T08:33:30.451Z,98.05
2023-01-12T08:34:32.940Z,98.00
2023-01-12T08:35:35.771Z,97.91
2023-01-12T08:36:38.146Z,97.46
2023-01-12T08:37:40.089Z,97.43
2023-01-12T08:38:41.977Z,97.36
2023-01-12T08:39:44.005Z,97.39
2023-01-12T08:41:04.653Z,97.87
2023-01-12T08:42:06.519Z,97.60
2023-01-12T08:43:08.404Z,97.16
2023-01-12T08:44:11.507Z,96.87
2023-01-12T08:45:13.243Z,96.75
2023-01-12T08:46:15.335Z,97.04
2023-01-12T08:47:27.633Z,96.31
2023-01-12T08:48:29.419Z,96.27
2023-01-12T08:49:31.899Z,96.65
2023-01-12T08:50:33.663Z,96.32
2023-01-12T08:51:35.592Z,96.44
2023-01-12T08:52:37.625Z,96.53
2023-01-12T08:53:39.439Z,96.66
2023-01-12T08:54:41.299Z,96.58
2023-01-12T08:55:43.471Z,95.34
2023-01-12T08:56:45.901Z,95.25
2023-01-12T08:57:47.651Z,95.23
2023-01-12T08:58:49.740Z,95.97
2023-01-12T08:59:51.648Z,95.91
2023-01-12T09:00:53.615Z,96.34
2023-01-12T09:01:55.774Z,96.41
2023-01-12T09:02:57.563Z,96.22
2023-01-12T09:04:00.172Z,96.32
2023-01-12T09:05:02.020Z,95.91
2023-01-12T09:06:20.543Z,95.55
2023-01-12T09:07:22.478Z,95.86
2023-01-12T09:08:24.241Z,95.41
2023-01-12T09:09:26.124Z,95.38
2023-01-12T09:10:28.244Z,95.61
2023-01-12T09:11:31.050Z,96.08
2023-01-12T09:12:32.989Z,95.71
2023-01-12T09:13:34.756Z,95.47
2023-01-12T09:14:39.388Z,95.79
2023-01-12T09:15:43.171Z,95.23
2023-01-12T09:16:45.269Z,94.85
2023-01-12T09:17:52.203Z,94.88
2023-01-12T09:18:54.047Z,95.28
2023-01-12T09:19:55.850Z,94.69
2023-01-12T09:21:04.122Z,94.61
2023-01-12T09:22:05.956Z,94.29
2023-01-12T09:23:07.776Z,93.82
2023-01-12T09:24:10.831Z,93.64
2023-01-12T09:25:12.756Z,94.07
2023-01-12T09:26:16.244Z,93.39
2023-01-12T09:27:18.077Z,93.82
2023-01-12T09:28:19.852Z,93.86
2023-01-12T09:29:21.741Z,93.49
2023-01-12T09:30:23.653Z,94.39
2023-01-12T09:31:26.583Z,93.88
2023-01-12T09:32:36.132Z,94.40
2023-01-12T09:33:39.473Z,93.75
2023-01-12T09:34:41.418Z,92.98
2023-01-12T09:35:44.765Z,93.14
2023-01-12T09:36:46.910Z,92.53
2023-01-12T09:37:48.743Z,92.78
2023-01-12T09:38:50.574Z,93.38
2023-01-12T09:39:52.417Z,93.59
2023-01-12T09:40:54.202Z,93.38
2023-01-12T09:42:15.162Z,93.48
2023-01-12T09:43:35.300Z,92.91
2023-01-12T09:44:56.919Z,93.21
2023-01-12T09:46:17.052Z,92.83
2023-01-12T09:47:22.813Z,93.20
2023-01-12T09:48:25.636Z,92.60
2023-01-12T09:49:30.930Z,92.69
2023-01-12T09:50:37.734Z,93.17
2023-01-12T09:51:48.228Z,92.02
2023-01-12T09:52:56.865Z,92.90
2023-01-12T09:53:58.701Z,92.61
2023-01-12T09:55:00.699Z,91.73
2023-01-12T09:56:08.308Z,91.65
2023-01-12T09:57:28.863Z,91.89
2023-01-12T09:58:51.405Z,91.69
2023-01-12T10:00:03.222Z,92.19
2023-01-12T10:01:14.723Z,91.75
2023-01-12T10:02:22.577Z,92.67
2023-01-12T10:03:31.236Z,91.95
2023-01-12T10:04:33.182Z,92.02
2023-01-12T10:05:47.604Z,92.84
2023-01-12T10:06:49.400Z,92.96
2023-01-12T10:07:53.615Z,91.92
2023-01-12T10:08:57.168Z,92.37
2023-01-12T10:09:58.993Z,92.86
2023-01-12T10:11:12.248Z,92.49
2023-01-12T10:12:20.230Z,92.64
2023-01-12T10:13:22.645Z,92.83
2023-01-12T10:14:30.495Z,92.72
2023-01-12T10:15:41.345Z,92.38
2023-01-12T10:16:43.299Z,92.00
2023-01-12T10:17:57.024Z,92.23
2023-01-12T10:19:01.528Z,92.02
2023-01-12T10:20:13.978Z,92.43
2023-01-12T10:21:15.848Z,91.43
2023-01-12T10:22:37.661Z,91.80
2023-01-12T10:23:39.641Z,91.54
2023-01-12T10:24:42.321Z,91.55
2023-01-12T10:25:52.057Z,91.90
2023-01-12T10:27:03.719Z,91.37
2023-01-12T10:28:12.304Z,90.98
2023-01-12T10:29:14.237Z,90.97
2023-01-12T10:30:17.753Z,91.94
2023-01-12T10:31:21.207Z,90.66
2023-01-12T10:32:26.568Z,90.60
2023-01-12T10:33:31.618Z,90.92
2023-01-12T10:34:49.717Z,90.36
2023-01-12T10:35:51.630Z,90.87
2023-01-12T10:36:58.187Z,90.83
2023-01-12T10:38:00.046Z,89.42
2023-01-12T10:39:03.730Z,89.90
2023-01-12T10:40:05.933Z,89.86
2023-01-12T10:41:10.836Z,91.22
2023-01-12T10:42:41.447Z,90.55
2023-01-12T10:43:44.657Z,89.81
2023-01-12T10:44:46.458Z,90.06
2023-01-12T10:46:08.574Z,90.72
2023-01-12T10:47:11.020Z,90.61
2023-01-12T10:48:22.651Z,90.04
2023-01-12T10:49:24.817Z,90.19
2023-01-12T10:50:28.704Z,90.47
2023-01-12T10:51:33.968Z,89.56
2023-01-12T10:52:38.629Z,89.24
2023-01-12T10:53:55.974Z,89.02
2023-01-12T10:54:58.989Z,88.62
2023-01-12T10:56:03.350Z,89.66
2023-01-12T10:57:08.657Z,89.53
2023-01-12T10:58:24.428Z,89.29
2023-01-12T10:59:29.576Z,89.11
2023-01-12T11:00:31.913Z,88.89
2023-01-12T11:01:53.492Z,89.30
2023-01-12T11:02:55.649Z,87.39
2023-01-12T11:04:04.364Z,87.68
2023-01-12T11:05:26.098Z,88.42
2023-01-12T11:06:30.864Z,88.92
2023-01-12T11:07:33.569Z,88.70
2023-01-12T11:08:35.503Z,89.02
2023-01-12T11:09:37.545Z,88.81
2023-01-12T11:10:39.613Z,89.09
2023-01-12T11:11:41.586Z,89.68
2023-01-12T11:12:43.496Z,89.78
2023-01-12T11:13:45.424Z,89.99
2023-01-12T11:14:59.053Z,89.95
2023-01-12T11:16:15.955Z,89.05
2023-01-12T11:17:17.756Z,88.81
2023-01-12T11:18:32.794Z,88.44
2023-01-12T11:19:40.047Z,87.57
2023-01-12T11:20:50.570Z,87.70
2023-01-12T11:22:03.403Z,87.86
2023-01-12T11:23:09.248Z,87.67
2023-01-12T11:24:14.191Z,86.84
2023-01-12T11:25:21.946Z,87.37
2023-01-12T11:26:28.953Z,87.50
2023-01-12T11:27:50.936Z,87.58
2023-01-12T11:28:54.371Z,87.21
2023-01-12T11:29:58.957Z,87.18
2023-01-12T11:31:21.034Z,87.93
2023-01-12T11:32:29.477Z,87.72
2023-01-12T11:33:45.426Z,88.12
2023-01-12T11:35:09.978Z,88.05
2023-01-12T11:36:17.515Z,88.15
2023-01-12T11:37:19.338Z,88.34
2023-01-12T11:38:24.618Z,88.23
2023-01-12T11:39:28.238Z,87.42
2023-01-12T11:40:33.970Z,87.65
2023-01-12T11:41:39.405Z,87.32
2023-01-12T11:43:00.755Z,87.50
2023-01-12T11:44:05.643Z,87.54
2023-01-12T11:45:07.436Z,87.45
2023-01-12T11:46:15.336Z,87.79
2023-01-12T11:47:21.672Z,87.83
2023-01-12T11:48:55.756Z,87.31
2023-01-12T11:50:02.811Z,86.53
2023-01-12T11:51:05.156Z,86.52
2023-01-12T11:52:11.142Z,86.20
2023-01-12T11:53:20.578Z,86.56
2023-01-12T11:54:23.548Z,86.37
2023-01-12T11:55:35.270Z,86.57
2023-01-12T11:56:53.066Z,87.19
2023-01-12T11:57:55.811Z,86.60
2023-01-12T11:59:23.970Z,86.23
2023-01-12T12:00:44.403Z,85.61
2023-01-12T12:01:58.221Z,86.11
2023-01-12T12:03:06.339Z,85.51
2023-01-12T12:04:26.747Z,86.14
2023-01-12T12:05:28.537Z,84.86
2023-01-12T12:06:30.355Z,85.91
2023-01-12T12:07:44.168Z,83.83
2023-01-12T12:08:46.009Z,83.61
2023-01-12T12:10:06.595Z,83.99
2023-01-12T12:11:08.379Z,84.82
2023-01-12T12:12:16.427Z,84.34
2023-01-12T12:13:44.071Z,83.40
2023-01-12T12:14:48.685Z,83.33
2023-01-12T12:15:55.243Z,83.75
2023-01-12T12:17:03.886Z,82.21
2023-01-12T12:18:14.523Z,82.28
2023-01-12T12:19:18.898Z,83.22
2023-01-12T12:20:42.389Z,81.40
2023-01-12T12:21:50.309Z,81.46
2023-01-12T12:22:54.823Z,78.64
2023-01-12T12:23:59.574Z,78.18
2023-01-12T12:25:27.944Z,78.77
2023-01-12T12:26:36.061Z,77.78
2023-01-12T12:27:52.866Z,78.08
2023-01-12T12:28:57.721Z,77.59
2023-01-12T12:29:59.498Z,76.83
2023-01-12T12:31:14.354Z,76.83
2023-01-12T12:32:19.158Z,77.74
2023-01-12T12:33:24.087Z,78.15
2023-01-12T12:34:35.015Z,78.91
2023-01-12T12:35:49.123Z,77.55
2023-01-12T12:37:00.189Z,76.74
2023-01-12T12:38:22.874Z,77.07
2023-01-12T12:39:26.096Z,77.51
2023-01-12T12:41:01.977Z,77.72
2023-01-12T12:42:28.428Z,77.02
2023-01-12T12:43:52.757Z,77.82
2023-01-12T12:45:19.093Z,77.40
2023-01-12T12:46:30.758Z,78.86
2023-01-12T12:47:42.263Z,77.98
2023-01-12T12:48:50.375Z,78.12
2023-01-12T12:49:55.860Z,79.38
2023-01-12T12:51:00.619Z,80.57
2023-01-12T12:52:02.919Z,77.77
2023-01-12T12:53:07.699Z,76.73
2023-01-12T12:54:24.089Z,76.53
2023-01-12T12:55:27.315Z,77.94
2023-01-12T12:56:30.631Z,77.80
2023-01-12T12:57:32.485Z,76.14
2023-01-12T12:58:44.928Z,75.51
2023-01-12T13:00:04.944Z,75.83
2023-01-12T13:01:25.345Z,75.04
2023-01-12T13:02:37.756Z,74.18
2023-01-12T13:03:39.467Z,73.52
2023-01-12T13:04:44.023Z,73.72
2023-01-12T13:05:47.824Z,74.44
2023-01-12T13:06:50.089Z,74.38
2023-01-12T13:07:52.780Z,74.03
2023-01-12T13:08:59.059Z,74.61
2023-01-12T13:10:30.472Z,75.26
2023-01-12T13:11:59.326Z,75.84
2023-01-12T13:13:05.140Z,76.90
2023-01-12T13:14:18.689Z,76.58
2023-01-12T13:15:22.418Z,74.60
2023-01-12T13:16:27.855Z,74.44
2023-01-12T13:17:32.556Z,75.03
2023-01-12T13:18:42.597Z,75.27
2023-01-12T13:19:46.203Z,74.24
2023-01-12T13:20:53.423Z,74.07
2023-01-12T13:21:59.257Z,75.57
2023-01-12T13:23:01.702Z,75.87
2023-01-12T13:24:12.460Z,77.95
2023-01-12T13:25:16.907Z,78.75
2023-01-12T13:26:35.085Z,78.77
2023-01-12T13:28:00.991Z,78.66
2023-01-12T13:29:21.059Z,78.89
2023-01-12T13:30:28.941Z,78.65
2023-01-12T13:31:31.848Z,77.23
2023-01-12T13:32:35.866Z,79.01
2023-01-12T13:33:38.690Z,78.06
2023-01-12T13:34:46.612Z,77.80
2023-01-12T13:35:48.362Z,77.62
2023-01-12T13:37:13.384Z,75.42
2023-01-12T13:38:33.631Z,74.61
2023-01-12T13:39:37.584Z,73.97
2023-01-12T13:40:41.216Z,74.86
2023-01-12T13:42:02.252Z,74.51
2023-01-12T13:43:19.842Z,74.58
2023-01-12T13:44:39.350Z,73.15
2023-01-12T13:45:46.725Z,74.20
2023-01-12T13:46:51.543Z,75.02
2023-01-12T13:47:54.344Z,75.88
2023-01-12T13:48:57.141Z,75.78
2023-01-12T13:50:02.930Z,75.56
2023-01-12T13:51:04.827Z,75.65
2023-01-12T13:52:09.855Z,75.96
2023-01-12T13:53:19.425Z,75.43
2023-01-12T13:54:21.273Z,76.66
2023-01-12T13:55:26.235Z,76.41
2023-01-12T13:56:28.202Z,76.80
2023-01-12T13:57:31.195Z,75.77
2023-01-12T13:58:40.868Z,74.67
2023-01-12T13:59:55.448Z,74.03
2023-01-12T14:00:59.179Z,74.90
2023-01-12T14:02:01.500Z,74.54
2023-01-12T14:03:04.684Z,75.63
2023-01-12T14:04:24.246Z,74.58
2023-01-12T14:05:34.973Z,75.60
2023-01-12T14:06:55.461Z,74.91